Time;durP1;ratioP1;P1;durP2;ratioP2;P2;SDS_P1;SDS_P2;PMS_P1;PMS_P2;Temp;Humidity;BMP_temperature;BMP_pressure;BME280_temperature;BME280_humidity;BME280_pressure;Samples;Min_cycle;Max_cycle;Signal;HPM_P1;HPM_P2
2022/11/08 00:02:08;;;;;;;14.30;7.00;;;12.30;99.90;;;;;;5052290;28;20401;-70
2022/11/08 00:04:33;;;;;;;9.10;6.17;;;12.30;99.90;;;;;;5051988;28;20463;-76
2022/11/08 00:15:12;;;;;;;7.97;7.00;;;12.40;99.90;;;;;;5052744;28;20451;-69
2022/11/08 00:17:37;;;;;;;8.70;6.77;;;12.40;99.90;;;;;;5053196;28;20835;-76
2022/11/08 00:20:04;;;;;;;13.23;7.50;;;12.40;99.90;;;;;;5054031;28;20683;-70
2022/11/08 00:22:30;;;;;;;10.23;8.77;;;12.40;99.90;;;;;;5052995;28;20265;-76
2022/11/08 00:24:56;;;;;;;18.70;8.30;;;12.40;99.90;;;;;;5052105;28;20454;-70
2022/11/08 00:27:23;;;;;;;10.70;8.10;;;12.40;99.90;;;;;;5052863;28;20436;-68
2022/11/08 00:29:49;;;;;;;9.77;7.43;;;12.50;99.90;;;;;;5053966;28;20635;-69
2022/11/08 00:32:20;;;;;;;14.60;7.73;;;12.50;99.90;;;;;;5053568;28;20392;-71
2022/11/08 00:34:49;;;;;;;13.10;8.57;;;12.60;99.90;;;;;;5051701;28;20453;-75
2022/11/08 00:37:16;;;;;;;14.07;8.10;;;12.50;99.90;;;;;;5051580;28;20424;-70
2022/11/08 00:39:42;;;;;;;10.40;7.70;;;12.50;99.90;;;;;;5052854;28;20406;-75
2022/11/08 00:42:08;;;;;;;9.83;8.17;;;12.50;99.90;;;;;;5053904;28;20381;-70
2022/11/08 00:44:34;;;;;;;15.37;8.20;;;12.50;99.90;;;;;;5050343;28;20186;-70
2022/11/08 00:46:59;;;;;;;13.10;7.80;;;12.50;99.90;;;;;;5052700;28;20563;-70
2022/11/08 00:49:25;;;;;;;13.27;7.50;;;12.50;99.90;;;;;;5053852;28;20388;-70
2022/11/08 00:51:51;;;;;;;14.13;8.00;;;12.50;99.90;;;;;;5069244;28;20650;-75
2022/11/08 00:54:19;;;;;;;10.00;6.40;;;12.50;99.90;;;;;;5050924;28;20191;-75
2022/11/08 00:56:46;;;;;;;11.00;7.53;;;12.40;99.90;;;;;;5052484;28;20666;-70
2022/11/08 00:59:14;;;;;;;9.77;6.50;;;12.50;99.90;;;;;;5053528;28;20426;-75
2022/11/08 01:01:40;;;;;;;11.20;7.50;;;12.40;99.90;;;;;;5053477;28;20405;-75
2022/11/08 01:04:07;;;;;;;10.33;6.80;;;12.40;99.90;;;;;;5051560;28;20506;-70
2022/11/08 01:06:34;;;;;;;12.33;6.03;;;12.40;99.90;;;;;;5067898;28;20455;-75
2022/11/08 01:09:00;;;;;;;11.20;5.13;;;12.40;99.90;;;;;;5052587;28;20437;-76
2022/11/08 01:11:27;;;;;;;12.70;6.03;;;12.40;99.90;;;;;;5052938;28;20493;-71
2022/11/08 01:13:56;;;;;;;11.37;6.33;;;12.40;99.90;;;;;;5052398;28;20404;-76
2022/11/08 01:16:23;;;;;;;11.93;6.30;;;12.40;99.90;;;;;;5050841;28;20461;-75
2022/11/08 01:18:51;;;;;;;8.20;5.80;;;12.40;99.90;;;;;;5052162;28;20423;-70
2022/11/08 01:21:17;;;;;;;7.37;5.10;;;12.50;99.90;;;;;;5053160;28;20406;-75
2022/11/08 01:23:44;;;;;;;10.87;7.03;;;12.40;99.90;;;;;;5051668;28;20422;-75
2022/11/08 01:26:12;;;;;;;6.33;5.40;;;12.40;99.90;;;;;;5051135;28;20448;-71
2022/11/08 01:28:38;;;;;;;10.80;5.47;;;12.40;99.90;;;;;;5051881;28;20450;-72
2022/11/08 01:31:13;;;;;;;18.07;5.77;;;12.40;99.90;;;;;;5052509;28;20522;-75
2022/11/08 01:33:39;;;;;;;14.00;6.37;;;12.40;99.90;;;;;;5051000;28;21206;-75
2022/11/08 01:36:06;;;;;;;16.50;5.80;;;12.40;99.90;;;;;;5053020;28;20531;-76
2022/11/08 01:38:32;;;;;;;9.77;5.00;;;12.40;99.90;;;;;;5050356;28;20452;-76
2022/11/08 01:40:58;;;;;;;9.27;6.00;;;12.40;99.90;;;;;;5053129;28;20409;-72
2022/11/08 01:43:30;;;;;;;10.97;5.70;;;12.40;99.90;;;;;;5052938;28;20885;-75
2022/11/08 01:46:17;;;;;;;7.63;6.40;;;12.40;99.90;;;;;;5052304;28;20191;-76
2022/11/08 01:49:03;;;;;;;11.43;5.50;;;12.40;99.90;;;;;;5032865;28;20422;-73
2022/11/08 01:51:33;;;;;;;11.67;5.10;;;12.40;99.90;;;;;;5029009;28;20874;-75
2022/11/08 01:54:03;;;;;;;11.30;5.13;;;12.40;99.90;;;;;;5032406;28;20742;-71
2022/11/08 01:56:29;;;;;;;10.43;5.97;;;12.40;99.90;;;;;;5033550;28;20754;-75
2022/11/08 01:58:56;;;;;;;16.43;5.00;;;12.40;99.90;;;;;;5052900;28;20376;-73
2022/11/08 02:01:22;;;;;;;13.50;5.87;;;12.40;99.90;;;;;;5051486;28;20872;-72
2022/11/08 02:03:48;;;;;;;8.30;4.63;;;12.40;99.90;;;;;;5052039;28;20395;-76
2022/11/08 02:06:14;;;;;;;10.83;4.97;;;12.40;99.90;;;;;;5053097;28;20203;-74
2022/11/08 02:08:42;;;;;;;7.87;5.80;;;12.50;99.90;;;;;;5055492;28;20516;-73
2022/11/08 02:11:12;;;;;;;6.60;4.90;;;12.50;99.90;;;;;;5056505;28;20380;-73
2022/11/08 02:13:39;;;;;;;10.17;4.53;;;12.50;99.90;;;;;;5054670;28;20417;-77
2022/11/08 02:16:13;;;;;;;5.83;5.10;;;12.50;99.90;;;;;;5056368;28;20442;-73
2022/11/08 02:18:41;;;;;;;7.50;4.60;;;12.50;99.90;;;;;;5054355;28;20779;-76
2022/11/08 02:21:21;;;;;;;9.60;5.70;;;12.60;99.90;;;;;;5056250;28;20485;-71
2022/11/08 02:23:55;;;;;;;7.70;4.40;;;12.50;99.90;;;;;;5055417;28;20377;-71
2022/11/08 02:26:30;;;;;;;10.27;4.00;;;12.50;99.90;;;;;;5055865;28;20441;-73
2022/11/08 02:28:56;;;;;;;4.90;3.70;;;12.60;99.90;;;;;;5055290;28;20423;-76
2022/11/08 02:31:22;;;;;;;10.87;5.60;;;12.50;99.90;;;;;;5055034;28;20891;-74
2022/11/08 02:33:49;;;;;;;8.70;4.70;;;12.50;99.90;;;;;;5055387;28;20401;-77
2022/11/08 02:36:23;;;;;;;5.63;4.63;;;12.60;99.90;;;;;;5054932;28;20508;-77
2022/11/08 02:38:56;;;;;;;9.13;5.00;;;12.60;99.90;;;;;;5055333;28;20566;-77
2022/11/08 02:41:22;;;;;;;17.03;5.10;;;12.60;99.90;;;;;;5056058;28;20368;-76
2022/11/08 02:43:47;;;;;;;9.03;5.37;;;12.60;99.90;;;;;;5054545;28;20837;-77
2022/11/08 02:46:13;;;;;;;8.57;4.50;;;12.50;99.90;;;;;;5056171;28;20206;-77
2022/11/08 02:48:39;;;;;;;8.33;4.50;;;12.50;99.90;;;;;;5054031;28;20663;-75
2022/11/08 02:51:04;;;;;;;16.20;5.20;;;12.50;99.90;;;;;;5054638;28;20505;-72
2022/11/08 02:53:30;;;;;;;8.50;4.47;;;12.50;99.90;;;;;;5055550;28;20179;-75
2022/11/08 02:55:56;;;;;;;8.77;4.20;;;12.50;99.90;;;;;;5054378;28;20211;-73
2022/11/08 02:58:22;;;;;;;9.97;4.37;;;12.50;99.90;;;;;;5054095;28;20185;-76
2022/11/08 03:00:48;;;;;;;5.17;4.30;;;12.40;99.90;;;;;;5055299;28;20171;-73
2022/11/08 03:03:13;;;;;;;5.87;3.57;;;12.40;99.90;;;;;;5054345;28;20516;-74
2022/11/08 03:05:39;;;;;;;8.93;4.73;;;12.40;99.90;;;;;;5053358;28;20298;-77
2022/11/08 03:08:06;;;;;;;4.90;3.90;;;12.40;99.90;;;;;;5054391;28;20245;-72
2022/11/08 03:10:31;;;;;;;15.57;4.40;;;12.30;99.90;;;;;;5054633;28;20433;-72
2022/11/08 03:12:59;;;;;;;3.97;3.67;;;12.30;99.90;;;;;;5055414;28;20177;-71
2022/11/08 03:15:25;;;;;;;12.37;3.87;;;12.20;99.90;;;;;;5053225;28;20202;-73
2022/11/08 03:17:51;;;;;;;4.47;3.90;;;12.30;99.90;;;;;;5052901;28;20487;-74
2022/11/08 03:20:17;;;;;;;13.47;5.20;;;12.30;99.90;;;;;;5049766;28;20644;-76
2022/11/08 03:22:43;;;;;;;4.80;3.77;;;12.30;99.90;;;;;;5053180;28;20186;-77
2022/11/08 03:25:09;;;;;;;5.43;3.90;;;12.20;99.90;;;;;;5054286;28;20388;-74
2022/11/08 03:27:35;;;;;;;7.23;4.50;;;12.30;99.90;;;;;;5054189;28;20392;-73
2022/11/08 03:30:00;;;;;;;11.53;4.40;;;12.20;99.90;;;;;;5054142;28;20403;-71
2022/11/08 03:32:26;;;;;;;8.23;4.10;;;12.30;99.90;;;;;;5054520;28;20195;-76
2022/11/08 03:34:52;;;;;;;9.13;3.93;;;12.30;99.90;;;;;;5052935;28;20249;-77
2022/11/08 03:37:17;;;;;;;10.57;3.77;;;12.30;99.90;;;;;;5054706;28;20183;-75
2022/11/08 03:39:43;;;;;;;6.00;3.90;;;12.30;99.90;;;;;;5052741;28;20229;-73
2022/11/08 03:42:09;;;;;;;6.90;4.73;;;12.30;99.90;;;;;;5054755;28;20167;-73
2022/11/08 03:44:34;;;;;;;12.60;4.10;;;12.30;99.90;;;;;;5069493;28;20171;-73
2022/11/08 03:47:00;;;;;;;7.80;3.10;;;12.30;99.90;;;;;;5054813;28;20309;-75
2022/11/08 03:49:26;;;;;;;9.77;4.00;;;12.30;99.90;;;;;;5053843;28;20624;-77
2022/11/08 03:51:53;;;;;;;20.90;4.10;;;12.30;99.90;;;;;;5053293;28;20398;-76
2022/11/08 03:54:18;;;;;;;10.30;3.43;;;12.30;99.90;;;;;;5052624;28;20390;-73
2022/11/08 03:56:44;;;;;;;11.20;4.07;;;12.30;99.90;;;;;;5053512;28;20530;-72
2022/11/08 03:59:11;;;;;;;6.63;3.50;;;12.30;99.90;;;;;;5053150;28;20197;-77
2022/11/08 04:01:37;;;;;;;4.70;4.00;;;12.30;99.90;;;;;;5053418;28;20523;-77
2022/11/08 04:04:03;;;;;;;5.93;4.20;;;12.30;99.90;;;;;;5068576;28;20416;-77
2022/11/08 04:06:29;;;;;;;8.10;3.83;;;12.30;99.90;;;;;;5054402;28;20932;-77
2022/11/08 04:08:54;;;;;;;7.20;3.83;;;12.30;99.90;;;;;;5053310;28;20520;-74
2022/11/08 04:16:48;;;;;;;5.70;3.30;;;12.30;99.90;;;;;;5054145;28;20421;-77
2022/11/08 04:21:58;;;;;;;8.97;4.53;;;12.30;99.90;;;;;;5053944;28;20296;-77
2022/11/08 04:24:23;;;;;;;5.10;3.70;;;12.30;99.90;;;;;;5052065;28;20487;-78
2022/11/08 04:26:49;;;;;;;4.50;3.20;;;12.30;99.90;;;;;;5053287;28;20198;-78
2022/11/08 04:29:15;;;;;;;5.47;2.80;;;12.30;99.90;;;;;;5051094;28;20179;-73
2022/11/08 04:31:41;;;;;;;5.70;3.50;;;12.30;99.90;;;;;;5052483;28;20175;-78
2022/11/08 04:34:07;;;;;;;7.10;3.17;;;12.30;99.90;;;;;;5052669;28;20195;-74
2022/11/08 04:36:32;;;;;;;8.37;3.70;;;12.30;99.90;;;;;;5052219;28;20498;-77
2022/11/08 04:38:58;;;;;;;7.83;3.70;;;12.30;99.90;;;;;;5052962;28;20590;-77
2022/11/08 04:41:25;;;;;;;4.67;2.90;;;12.30;99.90;;;;;;5053727;28;20167;-80
2022/11/08 04:43:53;;;;;;;4.30;3.30;;;12.20;99.90;;;;;;5052790;28;20376;-79
2022/11/08 04:46:21;;;;;;;4.60;2.30;;;12.20;99.90;;;;;;5053482;28;20403;-73
2022/11/08 04:48:50;;;;;;;5.20;3.43;;;12.10;99.90;;;;;;5052690;28;20431;-76
2022/11/08 04:51:19;;;;;;;3.10;2.63;;;12.10;99.90;;;;;;5052622;28;20443;-76
2022/11/08 04:53:45;;;;;;;8.07;3.70;;;12.10;99.90;;;;;;5052096;28;20441;-77
2022/11/08 04:56:20;;;;;;;6.67;3.00;;;12.10;99.90;;;;;;5053225;28;20466;-76
2022/11/08 04:58:48;;;;;;;5.07;3.10;;;12.10;99.90;;;;;;5051881;28;20425;-74
2022/11/08 05:01:16;;;;;;;10.73;4.80;;;12.10;99.90;;;;;;5053446;28;20437;-75
2022/11/08 05:03:42;;;;;;;12.80;3.27;;;12.00;99.90;;;;;;5067971;28;20460;-75
2022/11/08 05:06:13;;;;;;;6.67;3.50;;;12.00;99.90;;;;;;5068594;28;20965;-74
2022/11/08 05:08:39;;;;;;;8.63;4.30;;;11.90;99.90;;;;;;5051394;28;20266;-73
2022/11/08 05:11:13;;;;;;;7.17;3.20;;;11.90;99.90;;;;;;5051980;28;20392;-73
2022/11/08 05:13:40;;;;;;;8.97;3.30;;;11.90;99.90;;;;;;5052003;28;20383;-78
2022/11/08 05:16:10;;;;;;;9.83;3.80;;;11.90;99.90;;;;;;5053166;28;20428;-76
2022/11/08 05:18:36;;;;;;;6.30;4.57;;;11.90;99.90;;;;;;5052173;28;20432;-73
2022/11/08 05:23:47;;;;;;;4.00;3.27;;;11.90;99.90;;;;;;5052434;28;20516;-73
2022/11/08 05:26:14;;;;;;;9.30;3.97;;;11.80;99.90;;;;;;5052349;28;20400;-78
2022/11/08 05:28:40;;;;;;;6.80;3.73;;;11.70;99.90;;;;;;5051997;28;20488;-77
2022/11/08 05:31:06;;;;;;;4.27;3.00;;;11.70;99.90;;;;;;5052728;28;20459;-73
2022/11/08 05:33:32;;;;;;;4.50;3.47;;;11.60;99.90;;;;;;5052790;28;20167;-76
2022/11/08 05:36:06;;;;;;;9.00;3.93;;;11.70;99.90;;;;;;5052199;28;20438;-75
2022/11/08 05:38:32;;;;;;;8.50;3.77;;;11.70;99.90;;;;;;5051900;28;20415;-76
2022/11/08 05:41:05;;;;;;;8.63;3.90;;;11.60;99.90;;;;;;5055995;28;20364;-75
2022/11/08 05:43:31;;;;;;;3.40;3.10;;;11.60;99.90;;;;;;5056869;28;20388;-80
2022/11/08 05:46:00;;;;;;;5.47;3.13;;;11.60;99.90;;;;;;5055417;28;21042;-79
2022/11/08 05:48:25;;;;;;;8.67;4.53;;;11.60;99.90;;;;;;5055530;28;20527;-79
2022/11/08 05:50:51;;;;;;;4.20;3.23;;;11.50;99.90;;;;;;5056988;28;20380;-79
2022/11/08 05:53:17;;;;;;;8.77;3.90;;;11.50;99.90;;;;;;5056033;28;20202;-75
2022/11/08 05:55:43;;;;;;;4.10;3.47;;;11.50;99.90;;;;;;5055819;28;20457;-75
2022/11/08 05:58:09;;;;;;;3.50;3.13;;;11.50;99.90;;;;;;5055910;28;20666;-74
2022/11/08 06:00:35;;;;;;;13.20;4.10;;;11.50;99.90;;;;;;5056738;28;20229;-76
2022/11/08 06:03:02;;;;;;;11.90;3.60;;;11.50;99.90;;;;;;5056653;28;20187;-78
2022/11/08 06:05:27;;;;;;;3.60;3.30;;;11.50;99.90;;;;;;5054508;28;20809;-77
2022/11/08 06:07:53;;;;;;;10.90;4.00;;;11.50;99.90;;;;;;5055126;28;20463;-80
2022/11/08 06:10:19;;;;;;;6.93;3.60;;;11.50;99.90;;;;;;5056515;28;20183;-79
2022/11/08 06:12:45;;;;;;;6.23;3.00;;;11.50;99.90;;;;;;5056403;28;20384;-76
2022/11/08 06:15:11;;;;;;;3.70;3.40;;;11.50;99.90;;;;;;5054534;28;20469;-75
2022/11/08 06:17:37;;;;;;;6.20;3.63;;;11.50;99.90;;;;;;5056501;28;20497;-78
2022/11/08 06:20:05;;;;;;;4.70;3.80;;;11.50;99.90;;;;;;5054715;28;20170;-78
2022/11/08 06:22:32;;;;;;;13.33;4.87;;;11.50;99.90;;;;;;5056242;28;20592;-75
2022/11/08 06:24:58;;;;;;;3.30;2.90;;;11.50;99.90;;;;;;5053588;28;20494;-75
2022/11/08 06:27:23;;;;;;;6.20;4.17;;;11.50;99.90;;;;;;5055770;28;20502;-76
2022/11/08 06:29:49;;;;;;;5.33;3.10;;;11.40;99.90;;;;;;5055257;28;20178;-80
2022/11/08 06:32:15;;;;;;;6.27;2.93;;;11.40;99.90;;;;;;5056244;28;20592;-80
2022/11/08 06:34:41;;;;;;;7.60;4.13;;;11.50;99.90;;;;;;5055148;28;20401;-76
2022/11/08 06:37:07;;;;;;;9.47;4.33;;;11.40;99.90;;;;;;5054353;28;20183;-78
2022/11/08 06:39:33;;;;;;;5.00;3.70;;;11.40;99.90;;;;;;5054794;28;20819;-75
2022/11/08 06:42:00;;;;;;;5.43;3.63;;;11.40;99.90;;;;;;5054326;28;20171;-76
2022/11/08 06:44:25;;;;;;;5.00;3.07;;;11.50;99.90;;;;;;5055345;28;20167;-80
2022/11/08 06:46:54;;;;;;;6.30;3.60;;;11.50;99.90;;;;;;5060120;28;20428;-80
2022/11/08 06:49:22;;;;;;;10.07;5.20;;;11.50;99.90;;;;;;5059862;28;20532;-81
2022/11/08 06:51:47;;;;;;;11.03;5.20;;;11.50;99.90;;;;;;5054596;28;20766;-78
2022/11/08 06:54:13;;;;;;;5.90;3.20;;;11.50;99.90;;;;;;5060444;28;20395;-74
2022/11/08 06:56:39;;;;;;;7.70;4.80;;;11.40;99.90;;;;;;5067240;28;20210;-78
2022/11/08 06:59:04;;;;;;;7.57;3.03;;;11.40;99.90;;;;;;5053328;28;20595;-78
2022/11/08 07:01:30;;;;;;;7.47;3.93;;;11.40;99.90;;;;;;5054880;28;20236;-79
2022/11/08 07:03:56;;;;;;;5.40;2.60;;;11.50;99.90;;;;;;5051131;28;20186;-78
2022/11/08 07:06:21;;;;;;;7.80;3.00;;;11.40;99.90;;;;;;5054668;28;20228;-74
2022/11/08 07:08:47;;;;;;;9.90;3.63;;;11.40;99.90;;;;;;5055722;28;20221;-78
2022/11/08 07:11:14;;;;;;;8.83;4.53;;;11.40;99.90;;;;;;5055452;28;20194;-78
2022/11/08 07:13:39;;;;;;;8.57;3.53;;;11.40;99.90;;;;;;5053890;28;20178;-78
2022/11/08 07:16:05;;;;;;;7.37;3.50;;;11.40;99.90;;;;;;5055514;28;20483;-78
2022/11/08 07:18:31;;;;;;;7.80;3.40;;;11.40;99.90;;;;;;5037715;28;20640;-74
2022/11/08 07:20:59;;;;;;;7.23;3.50;;;11.40;99.90;;;;;;5055342;28;20481;-75
2022/11/08 07:23:25;;;;;;;5.53;3.37;;;11.40;99.90;;;;;;5054299;28;20186;-75
2022/11/08 07:25:54;;;;;;;4.70;2.77;;;11.40;99.90;;;;;;5054119;28;20456;-78
2022/11/08 07:28:20;;;;;;;5.80;3.20;;;11.40;99.90;;;;;;5055450;28;20964;-74
2022/11/08 07:30:47;;;;;;;5.00;3.10;;;11.40;99.90;;;;;;5055132;28;20489;-74
2022/11/08 07:33:14;;;;;;;5.70;3.00;;;11.40;99.90;;;;;;5053513;28;20495;-78
2022/11/08 07:35:40;;;;;;;3.80;2.83;;;11.40;99.90;;;;;;5053810;28;20428;-78
2022/11/08 07:38:06;;;;;;;7.37;4.20;;;11.40;99.90;;;;;;5054804;28;20393;-75
2022/11/08 07:40:34;;;;;;;6.57;3.47;;;11.40;99.90;;;;;;5055102;28;20375;-78
2022/11/08 07:43:00;;;;;;;11.30;3.00;;;11.40;99.90;;;;;;5053825;28;20449;-75
2022/11/08 07:45:26;;;;;;;7.63;3.00;;;11.40;99.90;;;;;;5068473;28;20842;-77
2022/11/08 07:48:02;;;;;;;6.40;3.80;;;11.40;99.90;;;;;;5054758;28;20472;-76
2022/11/08 07:50:29;;;;;;;7.13;4.00;;;11.50;99.90;;;;;;5054929;28;20419;-78
2022/11/08 07:52:55;;;;;;;8.13;2.90;;;11.40;99.90;;;;;;5053882;28;20423;-74
2022/11/08 07:55:21;;;;;;;3.67;3.30;;;11.50;99.90;;;;;;5053169;28;20923;-78
2022/11/08 07:57:46;;;;;;;9.90;2.90;;;11.50;98.10;;;;;;5054529;28;20163;-75
2022/11/08 08:00:13;;;;;;;5.27;2.60;;;11.60;96.40;;;;;;5053808;28;20396;-77
2022/11/08 08:02:39;;;;;;;7.23;3.10;;;11.60;95.20;;;;;;5054669;28;20242;-75
2022/11/08 08:05:05;;;;;;;8.27;3.60;;;11.70;96.40;;;;;;5053522;28;20508;-75
2022/11/08 08:07:30;;;;;;;6.20;3.30;;;11.70;86.50;;;;;;5053998;28;20416;-74
2022/11/08 08:09:56;;;;;;;4.83;3.40;;;11.80;86.80;;;;;;5053400;28;20411;-75
2022/11/08 08:12:22;;;;;;;9.90;4.70;;;11.80;81.10;;;;;;5054428;28;20167;-75
2022/11/08 08:14:47;;;;;;;4.67;2.60;;;11.80;77.90;;;;;;5053016;28;20167;-77
2022/11/08 08:17:13;;;;;;;4.77;2.80;;;11.90;71.10;;;;;;5052850;28;20198;-78
2022/11/08 08:19:39;;;;;;;7.80;3.17;;;11.90;57.90;;;;;;5053265;28;20169;-77
2022/11/08 08:22:04;;;;;;;10.97;3.40;;;11.90;36.90;;;;;;5054100;28;20624;-78
2022/11/08 08:24:30;;;;;;;7.33;4.47;;;11.90;34.40;;;;;;5052639;28;20532;-79
2022/11/08 08:26:56;;;;;;;4.23;3.13;;;11.80;30.80;;;;;;5053479;28;20183;-74
2022/11/08 08:29:21;;;;;;;5.23;2.73;;;11.90;34.80;;;;;;5053861;28;20201;-73
2022/11/08 08:31:47;;;;;;;3.53;3.07;;;11.90;31.40;;;;;;5052999;28;20167;-76
2022/11/08 08:34:14;;;;;;;6.50;3.30;;;12.00;22.10;;;;;;5052598;28;20167;-73
2022/11/08 08:36:41;;;;;;;3.03;2.73;;;12.00;11.30;;;;;;5053800;28;20198;-77
2022/11/08 08:39:06;;;;;;;2.63;2.43;;;12.00;1.00;;;;;;5054141;28;20401;-78
2022/11/08 08:41:32;;;;;;;4.97;3.30;;;12.00;1.00;;;;;;5052272;28;20440;-74
2022/11/08 08:43:58;;;;;;;10.70;3.70;;;12.10;1.00;;;;;;5051424;28;20535;-79
2022/11/08 08:46:23;;;;;;;5.10;2.40;;;12.10;1.00;;;;;;5052763;28;20198;-73
2022/11/08 08:48:49;;;;;;;2.63;2.33;;;12.20;1.00;;;;;;5053843;28;20225;-75
2022/11/08 08:51:15;;;;;;;3.80;3.20;;;12.20;1.00;;;;;;5053529;28;20205;-78
2022/11/08 08:53:40;;;;;;;4.57;3.13;;;12.30;1.00;;;;;;5052404;28;20631;-76
2022/11/08 08:56:07;;;;;;;5.83;3.20;;;12.30;1.00;;;;;;5052486;28;20268;-77
2022/11/08 08:58:33;;;;;;;7.97;2.87;;;12.30;1.00;;;;;;5053537;28;20175;-78
2022/11/08 09:01:03;;;;;;;6.33;2.60;;;12.30;1.00;;;;;;5052754;28;20791;-74
2022/11/08 09:03:30;;;;;;;4.70;2.60;;;12.40;1.00;;;;;;5053148;28;20636;-75
2022/11/08 09:05:57;;;;;;;3.50;2.70;;;12.50;1.00;;;;;;5052692;28;20454;-79
2022/11/08 09:08:23;;;;;;;3.20;2.90;;;12.50;1.00;;;;;;5053267;28;21083;-78
2022/11/08 09:10:57;;;;;;;3.20;2.97;;;12.60;1.00;;;;;;5052484;28;20445;-76
2022/11/08 09:13:29;;;;;;;2.53;2.30;;;12.70;1.00;;;;;;5051906;28;20745;-74
2022/11/08 09:15:55;;;;;;;2.93;2.47;;;12.70;1.00;;;;;;5050707;28;20444;-74
2022/11/08 09:18:21;;;;;;;5.60;3.00;;;12.80;1.00;;;;;;5052516;28;20398;-77
2022/11/08 09:20:47;;;;;;;4.37;2.77;;;12.70;1.00;;;;;;5051623;28;20250;-77
2022/11/08 09:23:17;;;;;;;5.33;3.60;;;12.70;1.00;;;;;;5051883;28;20396;-73
2022/11/08 09:25:43;;;;;;;7.77;3.10;;;12.70;1.00;;;;;;5051882;28;20198;-77
2022/11/08 09:28:08;;;;;;;5.23;2.93;;;12.70;1.00;;;;;;5053052;28;20721;-73
2022/11/08 09:30:35;;;;;;;3.03;2.73;;;12.70;1.00;;;;;;5052260;28;20232;-74
2022/11/08 09:33:01;;;;;;;3.70;2.70;;;12.80;1.00;;;;;;5053247;28;20178;-76
2022/11/08 09:35:27;;;;;;;6.50;3.40;;;12.80;1.00;;;;;;5052188;28;20434;-73
2022/11/08 09:37:53;;;;;;;4.70;2.57;;;12.90;1.00;;;;;;5053211;28;20159;-73
2022/11/08 09:40:51;;;;;;;7.00;2.67;;;13.00;1.00;;;;;;5052095;28;20416;-74
2022/11/08 09:43:45;;;;;;;2.50;2.30;;;13.10;1.00;;;;;;5052381;28;20166;-77
2022/11/08 09:46:21;;;;;;;4.20;2.97;;;13.20;1.00;;;;;;5052833;28;20404;-77
2022/11/08 09:48:46;;;;;;;5.60;3.20;;;13.40;1.00;;;;;;5051091;28;20419;-74
2022/11/08 09:51:19;;;;;;;2.70;2.50;;;13.50;1.00;;;;;;5052148;28;20816;-77
2022/11/08 09:54:00;;;;;;;6.10;2.80;;;13.60;1.00;;;;;;5052138;28;20181;-74
2022/11/08 09:56:30;;;;;;;5.80;2.87;;;13.50;99.90;;;;;;5052869;28;20834;-77
2022/11/08 09:59:00;;;;;;;3.30;2.37;;;13.50;99.90;;;;;;5053001;28;20375;-74
2022/11/08 10:01:30;;;;;;;3.40;2.50;;;13.60;99.90;;;;;;5050532;28;20792;-73
2022/11/08 10:04:00;;;;;;;2.57;2.37;;;13.60;99.90;;;;;;5051967;28;20392;-77
2022/11/08 10:06:48;;;;;;;4.07;2.63;;;13.70;99.90;;;;;;5052767;28;20436;-77
2022/11/08 10:09:57;;;;;;;6.27;2.80;;;13.80;99.90;;;;;;5052122;28;20454;-76
2022/11/08 10:12:52;;;;;;;5.47;2.40;;;13.80;99.90;;;;;;5052198;28;20436;-77
2022/11/08 10:15:24;;;;;;;2.90;2.50;;;13.80;99.90;;;;;;5051731;28;20427;-72
2022/11/08 10:17:53;;;;;;;3.30;2.50;;;13.90;99.90;;;;;;5051010;28;20431;-74
2022/11/08 10:20:21;;;;;;;6.70;2.80;;;14.00;99.90;;;;;;5050540;28;20499;-78
2022/11/08 10:23:17;;;;;;;6.87;2.50;;;14.30;99.90;;;;;;5051496;28;20398;-74
2022/11/08 10:25:48;;;;;;;5.40;2.63;;;14.40;99.90;;;;;;5049125;28;20531;-74
2022/11/08 10:28:18;;;;;;;4.83;2.53;;;14.50;99.90;;;;;;5055725;28;20409;-74
2022/11/08 10:30:48;;;;;;;3.63;2.43;;;14.50;99.90;;;;;;5073473;28;20413;-74
2022/11/08 10:33:26;;;;;;;4.13;2.00;;;14.50;99.90;;;;;;5055701;28;20466;-74
2022/11/08 10:36:33;;;;;;;4.50;3.13;;;14.50;99.90;;;;;;5054521;28;20499;-74
2022/11/08 10:39:22;;;;;;;6.77;3.60;;;14.70;99.90;;;;;;5045502;28;20752;-74
2022/11/08 10:42:20;;;;;;;4.37;2.20;;;14.70;99.90;;;;;;5053881;28;20384;-80
2022/11/08 10:44:46;;;;;;;4.33;2.40;;;14.80;99.90;;;;;;5053800;28;20449;-76
2022/11/08 10:47:23;;;;;;;4.33;2.10;;;14.80;99.90;;;;;;5054598;28;20447;-74
2022/11/08 10:49:49;;;;;;;5.07;2.50;;;14.90;99.90;;;;;;5054952;28;20447;-78
2022/11/08 10:52:19;;;;;;;9.33;2.20;;;15.00;99.90;;;;;;5055519;28;20772;-73
2022/11/08 10:54:46;;;;;;;2.30;2.10;;;15.00;99.90;;;;;;5053146;28;20179;-77
2022/11/08 10:57:30;;;;;;;4.87;3.00;;;15.10;99.90;;;;;;5054954;28;20766;-73
2022/11/08 11:00:13;;;;;;;3.00;2.70;;;15.20;99.90;;;;;;5055450;28;20393;-72
2022/11/08 11:02:39;;;;;;;4.20;2.27;;;15.10;99.90;;;;;;5055474;28;20397;-74
2022/11/08 11:05:42;;;;;;;3.73;2.73;;;15.00;99.90;;;;;;5068801;28;20777;-73
2022/11/08 11:08:07;;;;;;;4.77;2.60;;;14.90;99.90;;;;;;5055282;28;20404;-78
2022/11/08 11:10:39;;;;;;;2.33;2.13;;;14.80;99.90;;;;;;5055123;28;20393;-74
2022/11/08 11:13:22;;;;;;;8.20;2.50;;;14.80;99.90;;;;;;5054440;28;20623;-77
2022/11/08 11:15:50;;;;;;;10.00;2.40;;;14.80;99.90;;;;;;5053324;28;20544;-72
2022/11/08 11:18:27;;;;;;;4.63;1.83;;;14.80;99.90;;;;;;5053364;28;20524;-74
2022/11/08 11:21:07;;;;;;;5.10;2.20;;;14.80;94.20;;;;;;5054960;28;20429;-74
2022/11/08 11:23:39;;;;;;;4.97;2.37;;;14.90;93.90;;;;;;5052487;28;20436;-73
2022/11/08 11:26:07;;;;;;;3.20;1.93;;;14.90;93.80;;;;;;5054917;28;20487;-78
2022/11/08 11:28:41;;;;;;;3.13;2.07;;;15.00;94.00;;;;;;5053385;28;20433;-79
2022/11/08 11:31:15;;;;;;;2.47;2.00;;;15.10;94.30;;;;;;5054896;28;20479;-74
2022/11/08 11:33:46;;;;;;;5.90;1.90;;;15.10;94.00;;;;;;5053311;28;20380;-72
2022/11/08 11:36:19;;;;;;;2.30;1.90;;;15.20;83.10;;;;;;5052829;28;20456;-78
2022/11/08 11:38:52;;;;;;;2.13;1.80;;;15.20;83.00;;;;;;5053338;28;20475;-77
2022/11/08 11:41:32;;;;;;;2.53;1.53;;;15.20;91.40;;;;;;5054587;28;20702;-78
2022/11/08 11:44:42;;;;;;;6.83;2.33;;;15.30;90.50;;;;;;5052988;28;20478;-74
2022/11/08 11:47:29;;;;;;;1.93;1.73;;;15.20;78.90;;;;;;5020264;28;20514;-74
2022/11/08 11:50:01;;;;;;;2.07;1.83;;;15.20;70.30;;;;;;5053032;28;20436;-72
2022/11/08 11:52:27;;;;;;;2.70;1.87;;;15.20;71.50;;;;;;5054485;28;20413;-79
2022/11/08 11:54:53;;;;;;;2.10;2.00;;;15.30;77.30;;;;;;5053386;28;20413;-74
2022/11/08 11:57:39;;;;;;;8.30;2.37;;;15.30;76.30;;;;;;5054254;28;20240;-78
2022/11/08 12:00:11;;;;;;;2.27;1.77;;;15.40;73.20;;;;;;5053284;28;20179;-74
2022/11/08 12:02:45;;;;;;;2.60;2.03;;;15.40;75.20;;;;;;5054286;28;20588;-73
2022/11/08 12:05:30;;;;;;;4.60;1.70;;;15.40;71.80;;;;;;5066387;28;20973;-78
2022/11/08 12:08:32;;;;;;;2.37;1.90;;;15.30;69.60;;;;;;5053762;28;20421;-79
2022/11/08 12:11:34;;;;;;;2.57;2.23;;;15.30;56.50;;;;;;5052025;28;20383;-78
2022/11/08 12:14:37;;;;;;;4.00;1.83;;;15.30;45.60;;;;;;5053243;28;20413;-73
2022/11/08 12:17:20;;;;;;;4.27;2.80;;;15.40;62.40;;;;;;5049301;28;20810;-73
2022/11/08 12:20:06;;;;;;;4.40;2.80;;;15.40;50.50;;;;;;5049364;28;20512;-80
2022/11/08 12:23:06;;;;;;;2.93;1.67;;;15.30;44.50;;;;;;5052239;28;20865;-80
2022/11/08 12:25:54;;;;;;;3.73;2.53;;;15.30;37.30;;;;;;5051828;28;20449;-79
2022/11/08 12:28:45;;;;;;;3.53;1.90;;;15.40;34.40;;;;;;5053173;28;20401;-78
2022/11/08 12:31:23;;;;;;;3.97;2.10;;;15.30;33.00;;;;;;5053778;28;20405;-80
2022/11/08 12:34:01;;;;;;;2.97;2.10;;;15.30;36.80;;;;;;5052857;28;20810;-75
2022/11/08 12:37:11;;;;;;;3.87;1.70;;;15.40;27.80;;;;;;5053253;28;20495;-75
2022/11/08 12:39:56;;;;;;;3.63;2.37;;;15.40;19.70;;;;;;5052785;28;20414;-80
2022/11/08 12:43:07;;;;;;;4.27;2.00;;;15.40;18.00;;;;;;5053524;28;20420;-79
2022/11/08 12:45:44;;;;;;;2.90;2.07;;;15.50;18.60;;;;;;5050789;28;20459;-77
2022/11/08 12:48:27;;;;;;;3.70;2.53;;;15.40;22.50;;;;;;5053216;28;20395;-78
2022/11/08 12:51:41;;;;;;;3.73;2.10;;;15.40;20.30;;;;;;5052629;28;20526;-80
2022/11/08 12:54:18;;;;;;;1.73;1.40;;;15.40;13.00;;;;;;5017769;28;20424;-80
2022/11/08 12:56:47;;;;;;;2.67;2.07;;;15.30;5.90;;;;;;5051966;28;20464;-78
2022/11/08 12:59:22;;;;;;;5.17;1.77;;;15.20;11.20;;;;;;5051604;28;20483;-79
2022/11/08 13:01:49;;;;;;;2.93;2.50;;;15.20;14.00;;;;;;5052268;28;20420;-75
2022/11/08 13:04:31;;;;;;;6.70;2.37;;;15.20;20.40;;;;;;5050242;28;20473;-80
2022/11/08 13:07:06;;;;;;;2.00;1.90;;;15.20;11.50;;;;;;5068104;28;20433;-75
2022/11/08 13:09:51;;;;;;;2.30;2.10;;;15.10;14.00;;;;;;5053080;28;20444;-82
2022/11/08 13:12:28;;;;;;;2.20;1.97;;;15.10;20.40;;;;;;5052385;28;20486;-80
2022/11/08 13:14:55;;;;;;;3.90;2.33;;;15.00;18.50;;;;;;5051110;28;20444;-79
2022/11/08 13:17:26;;;;;;;3.20;2.30;;;14.90;21.50;;;;;;5053106;28;20925;-80
2022/11/08 13:20:03;;;;;;;3.17;1.73;;;15.00;25.90;;;;;;5054326;28;20440;-80
2022/11/08 13:22:29;;;;;;;2.97;2.40;;;15.00;17.80;;;;;;5055216;28;20433;-76